sensor_id;sensor_type;location;lat;lon;timestamp;temperature;humidity
7694;DHT22;3889;48.162;11.510;2022-11-24T00:00:37;6.80;99.90
7694;DHT22;3889;48.162;11.510;2022-11-24T00:03:06;6.70;99.90
7694;DHT22;3889;48.162;11.510;2022-11-24T00:05:34;6.80;99.90
7694;DHT22;3889;48.162;11.510;2022-11-24T00:08:04;6.80;99.90
7694;DHT22;3889;48.162;11.510;2022-11-24T00:10:32;6.80;99.90
7694;DHT22;3889;48.162;11.510;2022-11-24T00:12:59;6.90;99.90
7694;DHT22;3889;48.162;11.510;2022-11-24T00:15:27;6.90;99.90
7694;DHT22;3889;48.162;11.510;2022-11-24T00:17:55;6.80;99.90
7694;DHT22;3889;48.162;11.510;2022-11-24T00:20:24;6.90;99.90
7694;DHT22;3889;48.162;11.510;2022-11-24T00:22:53;6.80;99.90
7694;DHT22;3889;48.162;11.510;2022-11-24T00:25:21;6.70;99.90
7694;DHT22;3889;48.162;11.510;2022-11-24T00:27:49;6.70;99.90
7694;DHT22;3889;48.162;11.510;2022-11-24T00:30:17;6.60;99.90
7694;DHT22;3889;48.162;11.510;2022-11-24T00:32:44;6.70;99.90
7694;DHT22;3889;48.162;11.510;2022-11-24T00:35:12;6.70;99.90
7694;DHT22;3889;48.162;11.510;2022-11-24T00:37:41;6.70;99.90
7694;DHT22;3889;48.162;11.510;2022-11-24T00:40:10;6.70;99.90
7694;DHT22;3889;48.162;11.510;2022-11-24T00:42:37;6.70;99.90
7694;DHT22;3889;48.162;11.510;2022-11-24T00:45:06;6.80;99.90
7694;DHT22;3889;48.162;11.510;2022-11-24T00:47:39;6.80;99.90
7694;DHT22;3889;48.162;11.510;2022-11-24T00:50:08;6.80;99.90
7694;DHT22;3889;48.162;11.510;2022-11-24T00:52:36;6.70;99.90
7694;DHT22;3889;48.162;11.510;2022-11-24T00:55:06;6.80;99.90
7694;DHT22;3889;48.162;11.510;2022-11-24T00:57:34;6.80;99.90
7694;DHT22;3889;48.162;11.510;2022-11-24T01:00:02;6.80;99.90
7694;DHT22;3889;48.162;11.510;2022-11-24T01:02:30;6.80;99.90
7694;DHT22;3889;48.162;11.510;2022-11-24T01:04:58;6.80;99.90
7694;DHT22;3889;48.162;11.510;2022-11-24T01:07:26;6.70;99.90
7694;DHT22;3889;48.162;11.510;2022-11-24T01:09:53;6.70;99.90
7694;DHT22;3889;48.162;11.510;2022-11-24T01:12:23;6.80;99.90
7694;DHT22;3889;48.162;11.510;2022-11-24T01:14:51;6.80;99.90
7694;DHT22;3889;48.162;11.510;2022-11-24T01:17:18;6.80;99.90
7694;DHT22;3889;48.162;11.510;2022-11-24T01:19:46;6.80;99.90
7694;DHT22;3889;48.162;11.510;2022-11-24T01:22:14;6.80;99.90
7694;DHT22;3889;48.162;11.510;2022-11-24T01:24:42;6.70;99.90
7694;DHT22;3889;48.162;11.510;2022-11-24T01:27:11;6.60;99.90
7694;DHT22;3889;48.162;11.510;2022-11-24T01:29:40;6.60;99.90
7694;DHT22;3889;48.162;11.510;2022-11-24T01:32:08;6.60;99.90
7694;DHT22;3889;48.162;11.510;2022-11-24T01:34:36;6.50;99.90
7694;DHT22;3889;48.162;11.510;2022-11-24T01:37:04;6.60;99.90
7694;DHT22;3889;48.162;11.510;2022-11-24T01:39:31;6.70;99.90
7694;DHT22;3889;48.162;11.510;2022-11-24T01:42:00;6.70;99.90
7694;DHT22;3889;48.162;11.510;2022-11-24T01:44:29;6.60;99.90
7694;DHT22;3889;48.162;11.510;2022-11-24T01:47:00;6.60;99.90
7694;DHT22;3889;48.162;11.510;2022-11-24T01:49:36;6.60;99.90
7694;DHT22;3889;48.162;11.510;2022-11-24T01:52:07;6.60;99.90
7694;DHT22;3889;48.162;11.510;2022-11-24T01:54:41;6.60;99.90
7694;DHT22;3889;48.162;11.510;2022-11-24T01:57:14;6.70;99.90
7694;DHT22;3889;48.162;11.510;2022-11-24T01:59:45;6.70;99.90
7694;DHT22;3889;48.162;11.510;2022-11-24T02:02:16;6.70;99.90
7694;DHT22;3889;48.162;11.510;2022-11-24T02:04:45;6.70;99.90
7694;DHT22;3889;48.162;11.510;2022-11-24T02:07:13;6.60;99.90
7694;DHT22;3889;48.162;11.510;2022-11-24T02:09:43;6.60;99.90
7694;DHT22;3889;48.162;11.510;2022-11-24T02:12:13;6.60;99.90
7694;DHT22;3889;48.162;11.510;2022-11-24T02:14:42;6.60;99.90
7694;DHT22;3889;48.162;11.510;2022-11-24T02:17:10;6.60;99.90
7694;DHT22;3889;48.162;11.510;2022-11-24T02:19:46;6.60;99.90
7694;DHT22;3889;48.162;11.510;2022-11-24T02:22:21;6.60;99.90
7694;DHT22;3889;48.162;11.510;2022-11-24T02:24:57;6.70;99.90
7694;DHT22;3889;48.162;11.510;2022-11-24T02:27:27;6.70;99.90
7694;DHT22;3889;48.162;11.510;2022-11-24T02:29:55;6.60;99.90
7694;DHT22;3889;48.162;11.510;2022-11-24T02:32:23;6.60;99.90
7694;DHT22;3889;48.162;11.510;2022-11-24T02:34:58;6.60;99.90
7694;DHT22;3889;48.162;11.510;2022-11-24T02:37:27;6.50;99.90
7694;DHT22;3889;48.162;11.510;2022-11-24T02:39:55;6.50;99.90
7694;DHT22;3889;48.162;11.510;2022-11-24T02:42:23;6.60;99.90
7694;DHT22;3889;48.162;11.510;2022-11-24T02:44:55;6.60;99.90
7694;DHT22;3889;48.162;11.510;2022-11-24T02:47:25;6.60;99.90
7694;DHT22;3889;48.162;11.510;2022-11-24T02:49:53;6.60;99.90
7694;DHT22;3889;48.162;11.510;2022-11-24T02:52:20;6.60;99.90
7694;DHT22;3889;48.162;11.510;2022-11-24T02:54:48;6.70;99.90
7694;DHT22;3889;48.162;11.510;2022-11-24T02:57:16;6.60;99.90
7694;DHT22;3889;48.162;11.510;2022-11-24T02:59:44;6.60;99.90
7694;DHT22;3889;48.162;11.510;2022-11-24T03:02:13;6.60;99.90
7694;DHT22;3889;48.162;11.510;2022-11-24T03:04:41;6.70;99.90
7694;DHT22;3889;48.162;11.510;2022-11-24T03:07:10;6.70;99.90
7694;DHT22;3889;48.162;11.510;2022-11-24T03:09:38;6.70;99.90
7694;DHT22;3889;48.162;11.510;2022-11-24T03:12:06;6.70;99.90
7694;DHT22;3889;48.162;11.510;2022-11-24T03:14:34;6.70;99.90
7694;DHT22;3889;48.162;11.510;2022-11-24T03:17:02;6.80;99.90
7694;DHT22;3889;48.162;11.510;2022-11-24T03:19:32;6.80;99.90
7694;DHT22;3889;48.162;11.510;2022-11-24T03:21:59;6.70;99.90
7694;DHT22;3889;48.162;11.510;2022-11-24T03:24:27;6.70;99.90
7694;DHT22;3889;48.162;11.510;2022-11-24T03:26:55;6.80;99.90
7694;DHT22;3889;48.162;11.510;2022-11-24T03:29:23;6.80;99.90
7694;DHT22;3889;48.162;11.510;2022-11-24T03:31:50;6.70;99.90
7694;DHT22;3889;48.162;11.510;2022-11-24T03:34:18;6.70;99.90
7694;DHT22;3889;48.162;11.510;2022-11-24T03:36:47;6.70;99.90
7694;DHT22;3889;48.162;11.510;2022-11-24T03:39:15;6.70;99.90
7694;DHT22;3889;48.162;11.510;2022-11-24T03:41:43;6.70;99.90
7694;DHT22;3889;48.162;11.510;2022-11-24T03:44:11;6.70;99.90
7694;DHT22;3889;48.162;11.510;2022-11-24T03:46:39;6.70;99.90
7694;DHT22;3889;48.162;11.510;2022-11-24T03:49:06;6.70;99.90
7694;DHT22;3889;48.162;11.510;2022-11-24T03:51:35;6.70;99.90
7694;DHT22;3889;48.162;11.510;2022-11-24T03:54:05;6.80;99.90
7694;DHT22;3889;48.162;11.510;2022-11-24T03:56:32;6.70;99.90
7694;DHT22;3889;48.162;11.510;2022-11-24T03:59:00;6.70;99.90
7694;DHT22;3889;48.162;11.510;2022-11-24T04:01:28;6.70;99.90
7694;DHT22;3889;48.162;11.510;2022-11-24T04:03:56;6.70;99.90
7694;DHT22;3889;48.162;11.510;2022-11-24T04:06:24;6.70;99.90
7694;DHT22;3889;48.162;11.510;2022-11-24T04:08:52;6.70;99.90
7694;DHT22;3889;48.162;11.510;2022-11-24T04:11:21;6.60;99.90
7694;DHT22;3889;48.162;11.510;2022-11-24T04:14:06;6.60;99.90
7694;DHT22;3889;48.162;11.510;2022-11-24T04:16:39;6.70;99.90
7694;DHT22;3889;48.162;11.510;2022-11-24T04:19:07;6.70;99.90
7694;DHT22;3889;48.162;11.510;2022-11-24T04:21:35;6.70;99.90
7694;DHT22;3889;48.162;11.510;2022-11-24T04:24:03;6.70;99.90
7694;DHT22;3889;48.162;11.510;2022-11-24T04:26:32;6.70;99.90
7694;DHT22;3889;48.162;11.510;2022-11-24T04:29:00;6.60;99.90
7694;DHT22;3889;48.162;11.510;2022-11-24T04:31:28;6.60;99.90
7694;DHT22;3889;48.162;11.510;2022-11-24T04:33:56;6.60;99.90
7694;DHT22;3889;48.162;11.510;2022-11-24T04:36:23;6.70;99.90
7694;DHT22;3889;48.162;11.510;2022-11-24T04:38:52;6.70;99.90
7694;DHT22;3889;48.162;11.510;2022-11-24T04:41:41;6.70;99.90
7694;DHT22;3889;48.162;11.510;2022-11-24T04:44:09;6.70;99.90
7694;DHT22;3889;48.162;11.510;2022-11-24T04:46:37;6.80;99.90
7694;DHT22;3889;48.162;11.510;2022-11-24T04:49:05;6.80;99.90
7694;DHT22;3889;48.162;11.510;2022-11-24T04:51:37;6.80;99.90
7694;DHT22;3889;48.162;11.510;2022-11-24T04:54:05;6.80;99.90
7694;DHT22;3889;48.162;11.510;2022-11-24T04:56:33;6.80;99.90
7694;DHT22;3889;48.162;11.510;2022-11-24T04:59:02;6.90;99.90
7694;DHT22;3889;48.162;11.510;2022-11-24T05:01:34;6.80;99.90
7694;DHT22;3889;48.162;11.510;2022-11-24T05:04:02;6.90;99.90
7694;DHT22;3889;48.162;11.510;2022-11-24T05:06:30;6.90;99.90
7694;DHT22;3889;48.162;11.510;2022-11-24T05:08:58;7.00;99.90
7694;DHT22;3889;48.162;11.510;2022-11-24T05:11:26;6.90;99.90
7694;DHT22;3889;48.162;11.510;2022-11-24T05:13:54;6.90;99.90
7694;DHT22;3889;48.162;11.510;2022-11-24T05:16:23;6.90;99.90
7694;DHT22;3889;48.162;11.510;2022-11-24T05:18:51;6.90;99.90
7694;DHT22;3889;48.162;11.510;2022-11-24T05:21:19;6.90;99.90
7694;DHT22;3889;48.162;11.510;2022-11-24T05:23:46;6.90;99.90
7694;DHT22;3889;48.162;11.510;2022-11-24T05:26:14;6.90;99.90
7694;DHT22;3889;48.162;11.510;2022-11-24T05:28:42;6.80;99.90
7694;DHT22;3889;48.162;11.510;2022-11-24T05:31:10;6.80;99.90
7694;DHT22;3889;48.162;11.510;2022-11-24T05:33:39;6.70;99.90
7694;DHT22;3889;48.162;11.510;2022-11-24T05:36:09;6.80;99.90
7694;DHT22;3889;48.162;11.510;2022-11-24T05:38:57;6.80;99.90
7694;DHT22;3889;48.162;11.510;2022-11-24T05:41:25;6.90;99.90
7694;DHT22;3889;48.162;11.510;2022-11-24T05:43:53;6.90;99.90
7694;DHT22;3889;48.162;11.510;2022-11-24T05:46:21;7.00;99.90
7694;DHT22;3889;48.162;11.510;2022-11-24T05:48:50;6.90;99.90
7694;DHT22;3889;48.162;11.510;2022-11-24T05:51:18;7.00;99.90
7694;DHT22;3889;48.162;11.510;2022-11-24T05:53:46;7.00;99.90
7694;DHT22;3889;48.162;11.510;2022-11-24T05:56:14;7.00;99.90
7694;DHT22;3889;48.162;11.510;2022-11-24T05:58:42;7.00;99.90
7694;DHT22;3889;48.162;11.510;2022-11-24T06:01:10;7.00;99.90
7694;DHT22;3889;48.162;11.510;2022-11-24T06:03:38;7.00;99.90
7694;DHT22;3889;48.162;11.510;2022-11-24T06:06:07;7.10;99.90
7694;DHT22;3889;48.162;11.510;2022-11-24T06:08:35;7.10;99.90
7694;DHT22;3889;48.162;11.510;2022-11-24T06:11:03;7.10;99.90
7694;DHT22;3889;48.162;11.510;2022-11-24T06:13:44;7.10;99.90
7694;DHT22;3889;48.162;11.510;2022-11-24T06:16:14;7.10;99.90
7694;DHT22;3889;48.162;11.510;2022-11-24T06:18:42;7.10;99.90
7694;DHT22;3889;48.162;11.510;2022-11-24T06:21:11;7.10;99.90
7694;DHT22;3889;48.162;11.510;2022-11-24T06:23:39;7.10;99.90
7694;DHT22;3889;48.162;11.510;2022-11-24T06:26:07;7.10;99.90
7694;DHT22;3889;48.162;11.510;2022-11-24T06:28:35;7.20;99.90
7694;DHT22;3889;48.162;11.510;2022-11-24T06:31:04;7.10;99.90
7694;DHT22;3889;48.162;11.510;2022-11-24T06:33:33;7.10;99.90
7694;DHT22;3889;48.162;11.510;2022-11-24T06:36:01;7.10;99.90
7694;DHT22;3889;48.162;11.510;2022-11-24T06:38:31;7.10;99.90
7694;DHT22;3889;48.162;11.510;2022-11-24T06:41:02;7.10;99.90
7694;DHT22;3889;48.162;11.510;2022-11-24T06:43:34;7.20;99.90
7694;DHT22;3889;48.162;11.510;2022-11-24T06:46:02;7.20;99.90
7694;DHT22;3889;48.162;11.510;2022-11-24T06:48:31;7.30;99.90
7694;DHT22;3889;48.162;11.510;2022-11-24T06:50:59;7.20;99.90
7694;DHT22;3889;48.162;11.510;2022-11-24T06:53:28;7.20;99.90
7694;DHT22;3889;48.162;11.510;2022-11-24T06:55:58;7.30;99.90
7694;DHT22;3889;48.162;11.510;2022-11-24T06:58:27;7.20;99.90
7694;DHT22;3889;48.162;11.510;2022-11-24T07:00:55;7.30;99.90
7694;DHT22;3889;48.162;11.510;2022-11-24T07:03:23;7.30;99.90
7694;DHT22;3889;48.162;11.510;2022-11-24T07:05:55;7.30;99.90
7694;DHT22;3889;48.162;11.510;2022-11-24T07:08:24;7.40;99.90
7694;DHT22;3889;48.162;11.510;2022-11-24T07:10:52;7.30;99.90
7694;DHT22;3889;48.162;11.510;2022-11-24T07:13:21;7.30;99.90
7694;DHT22;3889;48.162;11.510;2022-11-24T07:15:49;7.40;99.90
7694;DHT22;3889;48.162;11.510;2022-11-24T07:18:16;7.40;99.90
7694;DHT22;3889;48.162;11.510;2022-11-24T07:20:44;7.40;99.90
7694;DHT22;3889;48.162;11.510;2022-11-24T07:23:12;7.30;99.90
7694;DHT22;3889;48.162;11.510;2022-11-24T07:25:40;7.30;99.90
7694;DHT22;3889;48.162;11.510;2022-11-24T07:28:08;7.30;99.90
7694;DHT22;3889;48.162;11.510;2022-11-24T07:30:37;7.30;99.90
7694;DHT22;3889;48.162;11.510;2022-11-24T07:33:05;7.30;99.90
7694;DHT22;3889;48.162;11.510;2022-11-24T07:35:32;7.20;99.90
7694;DHT22;3889;48.162;11.510;2022-11-24T07:38:00;7.10;99.90
7694;DHT22;3889;48.162;11.510;2022-11-24T07:40:28;7.10;99.90
7694;DHT22;3889;48.162;11.510;2022-11-24T07:42:59;7.00;99.90
7694;DHT22;3889;48.162;11.510;2022-11-24T07:45:27;7.10;99.90
7694;DHT22;3889;48.162;11.510;2022-11-24T07:47:56;7.00;99.90
7694;DHT22;3889;48.162;11.510;2022-11-24T07:50:24;7.10;99.90
7694;DHT22;3889;48.162;11.510;2022-11-24T07:52:52;7.10;99.90
7694;DHT22;3889;48.162;11.510;2022-11-24T07:55:20;7.20;99.90
7694;DHT22;3889;48.162;11.510;2022-11-24T07:57:47;7.30;99.90
7694;DHT22;3889;48.162;11.510;2022-11-24T08:00:16;7.30;99.90
7694;DHT22;3889;48.162;11.510;2022-11-24T08:02:44;7.40;99.90
7694;DHT22;3889;48.162;11.510;2022-11-24T08:05:13;7.50;99.90
7694;DHT22;3889;48.162;11.510;2022-11-24T08:07:41;7.50;99.90
7694;DHT22;3889;48.162;11.510;2022-11-24T08:10:09;7.50;99.90
7694;DHT22;3889;48.162;11.510;2022-11-24T08:12:37;7.40;99.90
7694;DHT22;3889;48.162;11.510;2022-11-24T08:15:07;7.50;99.90
7694;DHT22;3889;48.162;11.510;2022-11-24T08:17:37;7.50;99.90
7694;DHT22;3889;48.162;11.510;2022-11-24T08:20:06;7.50;99.90
7694;DHT22;3889;48.162;11.510;2022-11-24T08:22:35;7.50;99.90
7694;DHT22;3889;48.162;11.510;2022-11-24T08:25:03;7.60;99.90
7694;DHT22;3889;48.162;11.510;2022-11-24T08:27:31;7.70;99.90
7694;DHT22;3889;48.162;11.510;2022-11-24T08:29:59;7.80;99.90
7694;DHT22;3889;48.162;11.510;2022-11-24T08:32:27;7.80;99.90
7694;DHT22;3889;48.162;11.510;2022-11-24T08:34:55;7.90;99.90
7694;DHT22;3889;48.162;11.510;2022-11-24T08:37:40;8.00;99.90
7694;DHT22;3889;48.162;11.510;2022-11-24T08:40:09;8.20;99.90
7694;DHT22;3889;48.162;11.510;2022-11-24T08:42:37;8.30;99.90
7694;DHT22;3889;48.162;11.510;2022-11-24T08:45:06;8.30;99.90
7694;DHT22;3889;48.162;11.510;2022-11-24T08:47:50;8.40;99.90
7694;DHT22;3889;48.162;11.510;2022-11-24T08:50:19;8.50;99.90
7694;DHT22;3889;48.162;11.510;2022-11-24T08:52:49;8.50;99.90
7694;DHT22;3889;48.162;11.510;2022-11-24T08:55:17;8.50;99.90
7694;DHT22;3889;48.162;11.510;2022-11-24T08:57:45;8.50;99.90
7694;DHT22;3889;48.162;11.510;2022-11-24T09:00:14;8.60;99.90
7694;DHT22;3889;48.162;11.510;2022-11-24T09:02:54;8.70;99.90
7694;DHT22;3889;48.162;11.510;2022-11-24T09:05:22;8.80;99.90
7694;DHT22;3889;48.162;11.510;2022-11-24T09:08:11;8.80;99.90
7694;DHT22;3889;48.162;11.510;2022-11-24T09:10:39;8.70;99.90
7694;DHT22;3889;48.162;11.510;2022-11-24T09:13:07;8.70;99.90
7694;DHT22;3889;48.162;11.510;2022-11-24T09:15:35;8.80;99.90
7694;DHT22;3889;48.162;11.510;2022-11-24T09:18:03;8.70;99.90
7694;DHT22;3889;48.162;11.510;2022-11-24T09:20:30;8.70;99.90
7694;DHT22;3889;48.162;11.510;2022-11-24T09:22:58;8.70;99.90
7694;DHT22;3889;48.162;11.510;2022-11-24T09:25:27;8.60;99.90
7694;DHT22;3889;48.162;11.510;2022-11-24T09:27:55;8.70;99.90
7694;DHT22;3889;48.162;11.510;2022-11-24T09:30:25;8.80;99.90
7694;DHT22;3889;48.162;11.510;2022-11-24T09:32:54;8.80;99.90
7694;DHT22;3889;48.162;11.510;2022-11-24T09:35:22;8.90;99.90
7694;DHT22;3889;48.162;11.510;2022-11-24T09:37:50;8.90;99.90
7694;DHT22;3889;48.162;11.510;2022-11-24T09:40:18;8.80;99.90
7694;DHT22;3889;48.162;11.510;2022-11-24T09:42:54;8.90;99.90
7694;DHT22;3889;48.162;11.510;2022-11-24T09:45:30;9.00;99.90
7694;DHT22;3889;48.162;11.510;2022-11-24T09:48:24;9.00;99.90
7694;DHT22;3889;48.162;11.510;2022-11-24T09:50:56;8.90;99.90
7694;DHT22;3889;48.162;11.510;2022-11-24T09:53:30;9.00;99.90
7694;DHT22;3889;48.162;11.510;2022-11-24T09:56:03;9.00;99.90
7694;DHT22;3889;48.162;11.510;2022-11-24T09:58:39;9.10;99.90
7694;DHT22;3889;48.162;11.510;2022-11-24T10:01:14;9.20;99.90
7694;DHT22;3889;48.162;11.510;2022-11-24T10:03:44;9.30;99.90
7694;DHT22;3889;48.162;11.510;2022-11-24T10:06:20;9.30;99.90
7694;DHT22;3889;48.162;11.510;2022-11-24T10:09:22;9.40;99.90
7694;DHT22;3889;48.162;11.510;2022-11-24T10:11:59;9.30;99.90
7694;DHT22;3889;48.162;11.510;2022-11-24T10:14:56;9.30;99.90
7694;DHT22;3889;48.162;11.510;2022-11-24T10:17:39;9.10;99.90
7694;DHT22;3889;48.162;11.510;2022-11-24T10:20:17;9.10;99.90
7694;DHT22;3889;48.162;11.510;2022-11-24T10:22:50;9.00;99.90
7694;DHT22;3889;48.162;11.510;2022-11-24T10:25:25;8.80;99.90
7694;DHT22;3889;48.162;11.510;2022-11-24T10:27:59;8.80;99.90
7694;DHT22;3889;48.162;11.510;2022-11-24T10:30:30;8.70;99.90
7694;DHT22;3889;48.162;11.510;2022-11-24T10:33:01;8.50;99.90
7694;DHT22;3889;48.162;11.510;2022-11-24T10:35:35;8.40;99.90
7694;DHT22;3889;48.162;11.510;2022-11-24T10:38:13;8.20;99.90
7694;DHT22;3889;48.162;11.510;2022-11-24T10:40:45;8.00;99.90
7694;DHT22;3889;48.162;11.510;2022-11-24T10:43:25;7.80;99.90
7694;DHT22;3889;48.162;11.510;2022-11-24T10:45:55;7.60;99.90
7694;DHT22;3889;48.162;11.510;2022-11-24T10:48:28;7.60;99.90
7694;DHT22;3889;48.162;11.510;2022-11-24T10:51:07;7.40;99.90
7694;DHT22;3889;48.162;11.510;2022-11-24T10:53:45;7.30;99.90
7694;DHT22;3889;48.162;11.510;2022-11-24T10:56:14;7.10;99.90
7694;DHT22;3889;48.162;11.510;2022-11-24T10:58:42;7.10;99.90
7694;DHT22;3889;48.162;11.510;2022-11-24T11:01:27;7.10;99.90
7694;DHT22;3889;48.162;11.510;2022-11-24T11:03:59;7.10;99.90
7694;DHT22;3889;48.162;11.510;2022-11-24T11:06:28;7.30;99.90
7694;DHT22;3889;48.162;11.510;2022-11-24T11:09:16;7.30;99.90
7694;DHT22;3889;48.162;11.510;2022-11-24T11:11:45;7.40;99.90
7694;DHT22;3889;48.162;11.510;2022-11-24T11:14:28;7.50;99.90
7694;DHT22;3889;48.162;11.510;2022-11-24T11:16:58;7.40;99.90
7694;DHT22;3889;48.162;11.510;2022-11-24T11:19:32;7.30;99.90
7694;DHT22;3889;48.162;11.510;2022-11-24T11:22:24;7.20;99.90
7694;DHT22;3889;48.162;11.510;2022-11-24T11:25:14;7.30;99.90
7694;DHT22;3889;48.162;11.510;2022-11-24T11:27:44;7.40;99.90
7694;DHT22;3889;48.162;11.510;2022-11-24T11:30:21;7.40;99.90
7694;DHT22;3889;48.162;11.510;2022-11-24T11:33:21;7.40;99.90
7694;DHT22;3889;48.162;11.510;2022-11-24T11:36:10;7.30;99.90
7694;DHT22;3889;48.162;11.510;2022-11-24T11:38:38;7.40;99.90
7694;DHT22;3889;48.162;11.510;2022-11-24T11:41:12;7.40;99.90
7694;DHT22;3889;48.162;11.510;2022-11-24T11:43:44;7.50;99.90
7694;DHT22;3889;48.162;11.510;2022-11-24T11:46:14;7.40;99.90
7694;DHT22;3889;48.162;11.510;2022-11-24T11:48:44;7.40;99.90
7694;DHT22;3889;48.162;11.510;2022-11-24T11:51:35;7.30;99.90
7694;DHT22;3889;48.162;11.510;2022-11-24T11:54:09;7.30;99.90
7694;DHT22;3889;48.162;11.510;2022-11-24T11:56:41;7.40;99.90
7694;DHT22;3889;48.162;11.510;2022-11-24T11:59:40;7.50;99.90
7694;DHT22;3889;48.162;11.510;2022-11-24T12:02:44;7.50;99.90
7694;DHT22;3889;48.162;11.510;2022-11-24T12:05:26;7.60;99.90
7694;DHT22;3889;48.162;11.510;2022-11-24T12:08:10;7.60;99.90
7694;DHT22;3889;48.162;11.510;2022-11-24T12:10:51;7.70;99.90
7694;DHT22;3889;48.162;11.510;2022-11-24T12:13:37;7.70;99.90
7694;DHT22;3889;48.162;11.510;2022-11-24T12:16:19;7.70;99.90
7694;DHT22;3889;48.162;11.510;2022-11-24T12:19:06;7.90;99.90
7694;DHT22;3889;48.162;11.510;2022-11-24T12:21:43;8.00;99.90
7694;DHT22;3889;48.162;11.510;2022-11-24T12:24:20;8.00;99.90
7694;DHT22;3889;48.162;11.510;2022-11-24T12:26:53;8.00;99.90
7694;DHT22;3889;48.162;11.510;2022-11-24T12:29:38;7.80;99.90
7694;DHT22;3889;48.162;11.510;2022-11-24T12:32:17;7.90;99.90
7694;DHT22;3889;48.162;11.510;2022-11-24T12:34:52;7.90;99.90
7694;DHT22;3889;48.162;11.510;2022-11-24T12:37:37;7.90;99.90
7694;DHT22;3889;48.162;11.510;2022-11-24T12:40:12;7.70;99.90
7694;DHT22;3889;48.162;11.510;2022-11-24T12:42:49;7.80;99.90
7694;DHT22;3889;48.162;11.510;2022-11-24T12:45:23;7.90;99.90
7694;DHT22;3889;48.162;11.510;2022-11-24T12:48:12;7.90;99.90
7694;DHT22;3889;48.162;11.510;2022-11-24T12:50:45;7.90;99.90
7694;DHT22;3889;48.162;11.510;2022-11-24T12:53:17;8.10;99.90
7694;DHT22;3889;48.162;11.510;2022-11-24T12:55:47;8.20;99.90
7694;DHT22;3889;48.162;11.510;2022-11-24T12:58:22;8.30;99.90
7694;DHT22;3889;48.162;11.510;2022-11-24T13:01:05;8.30;99.90
7694;DHT22;3889;48.162;11.510;2022-11-24T13:03:51;8.10;99.90
7694;DHT22;3889;48.162;11.510;2022-11-24T13:06:24;8.00;99.90
7694;DHT22;3889;48.162;11.510;2022-11-24T13:08:55;7.90;99.90
7694;DHT22;3889;48.162;11.510;2022-11-24T13:11:41;7.80;99.90
7694;DHT22;3889;48.162;11.510;2022-11-24T13:14:15;7.70;99.90
7694;DHT22;3889;48.162;11.510;2022-11-24T13:16:51;7.70;99.90
7694;DHT22;3889;48.162;11.510;2022-11-24T13:19:40;7.50;99.90
7694;DHT22;3889;48.162;11.510;2022-11-24T13:22:16;7.60;99.90
7694;DHT22;3889;48.162;11.510;2022-11-24T13:25:07;7.50;99.90
7694;DHT22;3889;48.162;11.510;2022-11-24T13:27:43;7.60;99.90
7694;DHT22;3889;48.162;11.510;2022-11-24T13:33:37;7.70;99.90
7694;DHT22;3889;48.162;11.510;2022-11-24T13:39:06;7.90;99.90
7694;DHT22;3889;48.162;11.510;2022-11-24T13:42:06;7.90;99.90
7694;DHT22;3889;48.162;11.510;2022-11-24T13:44:58;7.90;99.90
7694;DHT22;3889;48.162;11.510;2022-11-24T13:47:33;7.90;99.90
7694;DHT22;3889;48.162;11.510;2022-11-24T13:50:03;8.00;99.90
7694;DHT22;3889;48.162;11.510;2022-11-24T13:52:38;8.00;99.90
7694;DHT22;3889;48.162;11.510;2022-11-24T13:55:20;7.90;99.90
7694;DHT22;3889;48.162;11.510;2022-11-24T13:57:51;8.00;99.90
7694;DHT22;3889;48.162;11.510;2022-11-24T14:00:23;8.00;99.90
7694;DHT22;3889;48.162;11.510;2022-11-24T14:02:56;8.00;99.90
7694;DHT22;3889;48.162;11.510;2022-11-24T14:05:33;8.00;99.90
7694;DHT22;3889;48.162;11.510;2022-11-24T14:08:03;8.10;99.90
7694;DHT22;3889;48.162;11.510;2022-11-24T14:10:35;8.10;99.90
7694;DHT22;3889;48.162;11.510;2022-11-24T14:13:23;8.00;99.90
7694;DHT22;3889;48.162;11.510;2022-11-24T14:16:00;8.00;99.90
7694;DHT22;3889;48.162;11.510;2022-11-24T14:18:30;8.10;99.90
7694;DHT22;3889;48.162;11.510;2022-11-24T14:20:59;8.10;99.90
7694;DHT22;3889;48.162;11.510;2022-11-24T14:23:28;8.20;99.90
7694;DHT22;3889;48.162;11.510;2022-11-24T14:25:57;8.20;99.90
7694;DHT22;3889;48.162;11.510;2022-11-24T14:28:27;8.10;99.90
7694;DHT22;3889;48.162;11.510;2022-11-24T14:31:06;8.10;99.90
7694;DHT22;3889;48.162;11.510;2022-11-24T14:33:34;8.00;99.90
7694;DHT22;3889;48.162;11.510;2022-11-24T14:36:03;7.90;99.90
7694;DHT22;3889;48.162;11.510;2022-11-24T14:38:30;7.90;99.90
7694;DHT22;3889;48.162;11.510;2022-11-24T14:41:13;7.90;99.90
7694;DHT22;3889;48.162;11.510;2022-11-24T14:43:44;7.80;99.90
7694;DHT22;3889;48.162;11.510;2022-11-24T14:46:17;7.80;99.90
7694;DHT22;3889;48.162;11.510;2022-11-24T14:48:47;7.70;99.90
7694;DHT22;3889;48.162;11.510;2022-11-24T14:51:20;7.20;99.90
7694;DHT22;3889;48.162;11.510;2022-11-24T14:53:51;6.60;99.90
7694;DHT22;3889;48.162;11.510;2022-11-24T14:56:25;6.40;99.90
7694;DHT22;3889;48.162;11.510;2022-11-24T14:58:56;6.30;99.90
7694;DHT22;3889;48.162;11.510;2022-11-24T15:01:30;6.10;99.90
7694;DHT22;3889;48.162;11.510;2022-11-24T15:04:12;6.10;99.90
7694;DHT22;3889;48.162;11.510;2022-11-24T15:07:04;6.10;99.90
7694;DHT22;3889;48.162;11.510;2022-11-24T15:09:35;6.10;99.90
7694;DHT22;3889;48.162;11.510;2022-11-24T15:12:07;5.90;99.90
7694;DHT22;3889;48.162;11.510;2022-11-24T15:14:48;6.00;99.90
7694;DHT22;3889;48.162;11.510;2022-11-24T15:17:21;6.00;99.90
7694;DHT22;3889;48.162;11.510;2022-11-24T15:19:51;6.10;99.90
7694;DHT22;3889;48.162;11.510;2022-11-24T15:22:34;6.10;99.90
7694;DHT22;3889;48.162;11.510;2022-11-24T15:27:45;6.00;99.90
7694;DHT22;3889;48.162;11.510;2022-11-24T15:30:15;6.00;99.90
7694;DHT22;3889;48.162;11.510;2022-11-24T15:32:48;5.90;99.90
7694;DHT22;3889;48.162;11.510;2022-11-24T15:35:16;5.90;99.90
7694;DHT22;3889;48.162;11.510;2022-11-24T15:37:43;5.80;99.90
7694;DHT22;3889;48.162;11.510;2022-11-24T15:40:12;5.60;99.90
7694;DHT22;3889;48.162;11.510;2022-11-24T15:42:42;5.50;99.90
7694;DHT22;3889;48.162;11.510;2022-11-24T15:45:12;5.50;99.90
7694;DHT22;3889;48.162;11.510;2022-11-24T15:47:41;5.50;99.90
7694;DHT22;3889;48.162;11.510;2022-11-24T15:50:10;5.40;99.90
7694;DHT22;3889;48.162;11.510;2022-11-24T15:52:38;5.40;99.90
7694;DHT22;3889;48.162;11.510;2022-11-24T15:55:11;5.30;99.90
7694;DHT22;3889;48.162;11.510;2022-11-24T15:57:43;5.20;99.90
7694;DHT22;3889;48.162;11.510;2022-11-24T16:00:15;5.30;99.90
7694;DHT22;3889;48.162;11.510;2022-11-24T16:02:45;5.30;99.90
7694;DHT22;3889;48.162;11.510;2022-11-24T16:05:16;5.30;99.90
7694;DHT22;3889;48.162;11.510;2022-11-24T16:07:45;5.30;99.90
7694;DHT22;3889;48.162;11.510;2022-11-24T16:10:24;5.30;99.90
7694;DHT22;3889;48.162;11.510;2022-11-24T16:12:53;5.40;99.90
7694;DHT22;3889;48.162;11.510;2022-11-24T16:15:21;5.40;99.90
7694;DHT22;3889;48.162;11.510;2022-11-24T16:17:51;5.40;99.90
7694;DHT22;3889;48.162;11.510;2022-11-24T16:20:19;5.50;99.90
7694;DHT22;3889;48.162;11.510;2022-11-24T16:22:47;5.50;99.90
7694;DHT22;3889;48.162;11.510;2022-11-24T16:25:14;5.50;99.90
7694;DHT22;3889;48.162;11.510;2022-11-24T16:27:42;5.50;99.90
7694;DHT22;3889;48.162;11.510;2022-11-24T16:30:12;5.50;99.90
7694;DHT22;3889;48.162;11.510;2022-11-24T16:32:40;5.50;99.90
7694;DHT22;3889;48.162;11.510;2022-11-24T16:35:09;5.40;99.90
7694;DHT22;3889;48.162;11.510;2022-11-24T16:37:37;5.40;99.90
7694;DHT22;3889;48.162;11.510;2022-11-24T16:40:06;5.40;99.90